sensor_id;sensor_type;location;lat;lon;timestamp;P1;durP1;ratioP1;P2;durP2;ratioP2
2998;SDS011;1509;51.964;7.628;2022-08-21T00:02:01;10.90;;;5.87;;
2998;SDS011;1509;51.964;7.628;2022-08-21T00:04:27;10.00;;;5.10;;
2998;SDS011;1509;51.964;7.628;2022-08-21T00:06:53;7.83;;;4.40;;
2998;SDS011;1509;51.964;7.628;2022-08-21T00:09:19;11.20;;;5.10;;
2998;SDS011;1509;51.964;7.628;2022-08-21T00:11:45;8.23;;;4.10;;
2998;SDS011;1509;51.964;7.628;2022-08-21T00:14:11;6.47;;;4.43;;
2998;SDS011;1509;51.964;7.628;2022-08-21T00:16:38;8.30;;;4.57;;
2998;SDS011;1509;51.964;7.628;2022-08-21T00:19:03;11.53;;;5.90;;
2998;SDS011;1509;51.964;7.628;2022-08-21T00:21:30;6.03;;;4.17;;
2998;SDS011;1509;51.964;7.628;2022-08-21T00:23:56;8.60;;;4.80;;
2998;SDS011;1509;51.964;7.628;2022-08-21T00:26:22;7.07;;;4.87;;
2998;SDS011;1509;51.964;7.628;2022-08-21T00:28:47;7.50;;;4.87;;
2998;SDS011;1509;51.964;7.628;2022-08-21T00:31:14;11.30;;;4.47;;
2998;SDS011;1509;51.964;7.628;2022-08-21T00:33:40;7.23;;;4.70;;
2998;SDS011;1509;51.964;7.628;2022-08-21T00:36:07;8.20;;;4.70;;
2998;SDS011;1509;51.964;7.628;2022-08-21T00:38:32;8.17;;;5.23;;
2998;SDS011;1509;51.964;7.628;2022-08-21T00:41:00;7.77;;;6.87;;
2998;SDS011;1509;51.964;7.628;2022-08-21T00:43:28;16.53;;;11.80;;
2998;SDS011;1509;51.964;7.628;2022-08-21T00:46:04;7.73;;;4.73;;
2998;SDS011;1509;51.964;7.628;2022-08-21T00:48:31;7.17;;;5.10;;
2998;SDS011;1509;51.964;7.628;2022-08-21T00:51:07;6.27;;;4.40;;
2998;SDS011;1509;51.964;7.628;2022-08-21T00:53:47;8.23;;;5.00;;
2998;SDS011;1509;51.964;7.628;2022-08-21T00:56:17;10.00;;;5.10;;
2998;SDS011;1509;51.964;7.628;2022-08-21T00:58:45;11.20;;;4.97;;
2998;SDS011;1509;51.964;7.628;2022-08-21T01:01:12;5.83;;;4.70;;
2998;SDS011;1509;51.964;7.628;2022-08-21T01:03:39;9.63;;;4.80;;
2998;SDS011;1509;51.964;7.628;2022-08-21T01:06:05;9.30;;;5.03;;
2998;SDS011;1509;51.964;7.628;2022-08-21T01:08:32;7.50;;;4.47;;
2998;SDS011;1509;51.964;7.628;2022-08-21T01:10:58;12.83;;;4.80;;
2998;SDS011;1509;51.964;7.628;2022-08-21T01:13:26;9.17;;;4.70;;
2998;SDS011;1509;51.964;7.628;2022-08-21T01:15:55;8.73;;;4.93;;
2998;SDS011;1509;51.964;7.628;2022-08-21T01:18:25;8.93;;;5.97;;
2998;SDS011;1509;51.964;7.628;2022-08-21T01:21:02;10.00;;;5.73;;
2998;SDS011;1509;51.964;7.628;2022-08-21T01:23:30;8.50;;;6.10;;
2998;SDS011;1509;51.964;7.628;2022-08-21T01:25:55;10.23;;;6.30;;
2998;SDS011;1509;51.964;7.628;2022-08-21T01:28:21;10.87;;;6.93;;
2998;SDS011;1509;51.964;7.628;2022-08-21T01:30:47;7.70;;;5.70;;
2998;SDS011;1509;51.964;7.628;2022-08-21T01:33:15;6.93;;;5.40;;
2998;SDS011;1509;51.964;7.628;2022-08-21T01:35:43;10.80;;;6.00;;
2998;SDS011;1509;51.964;7.628;2022-08-21T01:38:11;11.20;;;6.30;;
2998;SDS011;1509;51.964;7.628;2022-08-21T01:40:37;10.57;;;6.50;;
2998;SDS011;1509;51.964;7.628;2022-08-21T01:43:03;9.43;;;5.87;;
2998;SDS011;1509;51.964;7.628;2022-08-21T01:45:29;11.43;;;6.13;;
2998;SDS011;1509;51.964;7.628;2022-08-21T01:47:55;10.93;;;6.67;;
2998;SDS011;1509;51.964;7.628;2022-08-21T01:50:21;7.53;;;5.53;;
2998;SDS011;1509;51.964;7.628;2022-08-21T01:52:47;8.10;;;6.70;;
2998;SDS011;1509;51.964;7.628;2022-08-21T01:55:13;8.40;;;6.60;;
2998;SDS011;1509;51.964;7.628;2022-08-21T01:57:40;9.13;;;5.53;;
2998;SDS011;1509;51.964;7.628;2022-08-21T02:00:08;7.80;;;5.73;;
2998;SDS011;1509;51.964;7.628;2022-08-21T02:02:35;7.23;;;4.83;;
2998;SDS011;1509;51.964;7.628;2022-08-21T02:05:02;7.80;;;5.70;;
2998;SDS011;1509;51.964;7.628;2022-08-21T02:07:35;9.70;;;6.43;;
2998;SDS011;1509;51.964;7.628;2022-08-21T02:10:06;7.43;;;5.60;;
2998;SDS011;1509;51.964;7.628;2022-08-21T02:12:33;12.50;;;7.10;;
2998;SDS011;1509;51.964;7.628;2022-08-21T02:14:59;8.57;;;5.83;;
2998;SDS011;1509;51.964;7.628;2022-08-21T02:17:25;7.20;;;5.00;;
2998;SDS011;1509;51.964;7.628;2022-08-21T02:19:51;7.37;;;5.77;;
2998;SDS011;1509;51.964;7.628;2022-08-21T02:22:16;9.70;;;5.37;;
2998;SDS011;1509;51.964;7.628;2022-08-21T02:24:42;7.53;;;5.00;;
2998;SDS011;1509;51.964;7.628;2022-08-21T02:27:08;10.00;;;6.57;;
2998;SDS011;1509;51.964;7.628;2022-08-21T02:29:34;8.47;;;5.90;;
2998;SDS011;1509;51.964;7.628;2022-08-21T02:32:00;6.60;;;5.67;;
2998;SDS011;1509;51.964;7.628;2022-08-21T02:34:25;13.03;;;6.70;;
2998;SDS011;1509;51.964;7.628;2022-08-21T02:36:51;10.20;;;6.23;;
2998;SDS011;1509;51.964;7.628;2022-08-21T02:39:16;11.23;;;6.83;;
2998;SDS011;1509;51.964;7.628;2022-08-21T02:41:42;10.97;;;5.90;;
2998;SDS011;1509;51.964;7.628;2022-08-21T02:44:08;12.50;;;7.13;;
2998;SDS011;1509;51.964;7.628;2022-08-21T02:46:34;11.07;;;7.13;;
2998;SDS011;1509;51.964;7.628;2022-08-21T02:48:59;10.27;;;7.30;;
2998;SDS011;1509;51.964;7.628;2022-08-21T02:51:25;10.87;;;6.77;;
2998;SDS011;1509;51.964;7.628;2022-08-21T02:53:50;12.00;;;6.80;;
2998;SDS011;1509;51.964;7.628;2022-08-21T02:56:17;7.60;;;6.07;;
2998;SDS011;1509;51.964;7.628;2022-08-21T02:58:49;12.40;;;7.10;;
2998;SDS011;1509;51.964;7.628;2022-08-21T03:01:17;11.83;;;7.50;;
2998;SDS011;1509;51.964;7.628;2022-08-21T03:03:43;8.87;;;6.97;;
2998;SDS011;1509;51.964;7.628;2022-08-21T03:06:11;11.50;;;7.33;;
2998;SDS011;1509;51.964;7.628;2022-08-21T03:08:38;10.87;;;7.17;;
2998;SDS011;1509;51.964;7.628;2022-08-21T03:11:04;10.87;;;7.80;;
2998;SDS011;1509;51.964;7.628;2022-08-21T03:13:30;12.47;;;8.00;;
2998;SDS011;1509;51.964;7.628;2022-08-21T03:15:57;12.67;;;8.77;;
2998;SDS011;1509;51.964;7.628;2022-08-21T03:18:23;11.80;;;8.10;;
2998;SDS011;1509;51.964;7.628;2022-08-21T03:20:49;13.83;;;9.67;;
2998;SDS011;1509;51.964;7.628;2022-08-21T03:23:15;13.83;;;9.40;;
2998;SDS011;1509;51.964;7.628;2022-08-21T03:25:42;14.50;;;10.23;;
2998;SDS011;1509;51.964;7.628;2022-08-21T03:28:10;10.87;;;9.23;;
2998;SDS011;1509;51.964;7.628;2022-08-21T03:30:42;12.13;;;8.70;;
2998;SDS011;1509;51.964;7.628;2022-08-21T03:33:09;11.53;;;9.43;;
2998;SDS011;1509;51.964;7.628;2022-08-21T03:35:35;13.67;;;9.80;;
2998;SDS011;1509;51.964;7.628;2022-08-21T03:38:01;12.53;;;10.13;;
2998;SDS011;1509;51.964;7.628;2022-08-21T03:40:27;14.23;;;9.77;;
2998;SDS011;1509;51.964;7.628;2022-08-21T03:42:54;13.07;;;8.50;;
2998;SDS011;1509;51.964;7.628;2022-08-21T03:45:20;12.97;;;9.80;;
2998;SDS011;1509;51.964;7.628;2022-08-21T03:47:59;11.70;;;8.40;;
2998;SDS011;1509;51.964;7.628;2022-08-21T03:50:29;11.40;;;8.77;;
2998;SDS011;1509;51.964;7.628;2022-08-21T03:52:58;18.03;;;10.00;;
2998;SDS011;1509;51.964;7.628;2022-08-21T03:55:24;16.07;;;9.27;;
2998;SDS011;1509;51.964;7.628;2022-08-21T03:57:50;12.90;;;9.93;;
2998;SDS011;1509;51.964;7.628;2022-08-21T04:00:17;15.80;;;10.27;;
2998;SDS011;1509;51.964;7.628;2022-08-21T04:02:47;15.20;;;9.80;;
2998;SDS011;1509;51.964;7.628;2022-08-21T04:05:13;15.93;;;10.70;;
2998;SDS011;1509;51.964;7.628;2022-08-21T04:07:51;11.53;;;9.70;;
2998;SDS011;1509;51.964;7.628;2022-08-21T04:10:18;13.83;;;9.83;;
2998;SDS011;1509;51.964;7.628;2022-08-21T04:12:44;14.17;;;9.90;;
2998;SDS011;1509;51.964;7.628;2022-08-21T04:15:09;13.20;;;11.50;;
2998;SDS011;1509;51.964;7.628;2022-08-21T04:17:35;17.63;;;10.47;;
2998;SDS011;1509;51.964;7.628;2022-08-21T04:20:01;20.07;;;11.10;;
2998;SDS011;1509;51.964;7.628;2022-08-21T04:22:27;18.70;;;11.90;;
2998;SDS011;1509;51.964;7.628;2022-08-21T04:24:52;15.90;;;11.90;;
2998;SDS011;1509;51.964;7.628;2022-08-21T04:27:18;18.83;;;11.63;;
2998;SDS011;1509;51.964;7.628;2022-08-21T04:29:44;14.67;;;11.33;;
2998;SDS011;1509;51.964;7.628;2022-08-21T04:32:09;19.50;;;10.57;;
2998;SDS011;1509;51.964;7.628;2022-08-21T04:34:35;14.50;;;10.83;;
2998;SDS011;1509;51.964;7.628;2022-08-21T04:37:01;14.60;;;11.00;;
2998;SDS011;1509;51.964;7.628;2022-08-21T04:39:26;14.53;;;11.17;;
2998;SDS011;1509;51.964;7.628;2022-08-21T04:41:52;14.97;;;11.17;;
2998;SDS011;1509;51.964;7.628;2022-08-21T04:44:18;17.27;;;11.63;;
2998;SDS011;1509;51.964;7.628;2022-08-21T04:46:43;16.00;;;10.73;;
2998;SDS011;1509;51.964;7.628;2022-08-21T04:49:09;15.67;;;11.37;;
2998;SDS011;1509;51.964;7.628;2022-08-21T04:51:35;14.37;;;10.90;;
2998;SDS011;1509;51.964;7.628;2022-08-21T04:56:33;17.10;;;10.53;;
2998;SDS011;1509;51.964;7.628;2022-08-21T04:59:03;17.30;;;11.70;;
2998;SDS011;1509;51.964;7.628;2022-08-21T05:01:32;13.50;;;11.10;;
2998;SDS011;1509;51.964;7.628;2022-08-21T05:04:01;17.30;;;10.60;;
2998;SDS011;1509;51.964;7.628;2022-08-21T05:06:30;12.40;;;10.43;;
2998;SDS011;1509;51.964;7.628;2022-08-21T05:08:58;12.83;;;11.40;;
2998;SDS011;1509;51.964;7.628;2022-08-21T05:11:25;17.00;;;11.83;;
2998;SDS011;1509;51.964;7.628;2022-08-21T05:13:50;13.73;;;10.17;;
2998;SDS011;1509;51.964;7.628;2022-08-21T05:16:16;12.70;;;11.07;;
2998;SDS011;1509;51.964;7.628;2022-08-21T05:18:42;12.13;;;9.70;;
2998;SDS011;1509;51.964;7.628;2022-08-21T05:21:08;21.37;;;11.03;;
2998;SDS011;1509;51.964;7.628;2022-08-21T05:23:34;18.40;;;10.97;;
2998;SDS011;1509;51.964;7.628;2022-08-21T05:26:00;12.73;;;10.10;;
2998;SDS011;1509;51.964;7.628;2022-08-21T05:28:29;14.63;;;11.07;;
2998;SDS011;1509;51.964;7.628;2022-08-21T05:30:55;15.87;;;11.00;;
2998;SDS011;1509;51.964;7.628;2022-08-21T05:33:21;12.60;;;10.10;;
2998;SDS011;1509;51.964;7.628;2022-08-21T05:35:49;16.73;;;11.27;;
2998;SDS011;1509;51.964;7.628;2022-08-21T05:38:16;13.27;;;11.23;;
2998;SDS011;1509;51.964;7.628;2022-08-21T05:40:42;16.27;;;10.97;;
2998;SDS011;1509;51.964;7.628;2022-08-21T05:43:08;16.10;;;10.80;;
2998;SDS011;1509;51.964;7.628;2022-08-21T05:45:34;16.20;;;11.10;;
2998;SDS011;1509;51.964;7.628;2022-08-21T05:48:06;22.83;;;11.60;;
2998;SDS011;1509;51.964;7.628;2022-08-21T05:50:34;13.53;;;10.10;;
2998;SDS011;1509;51.964;7.628;2022-08-21T05:53:00;15.60;;;11.43;;
2998;SDS011;1509;51.964;7.628;2022-08-21T05:55:28;14.60;;;10.83;;
2998;SDS011;1509;51.964;7.628;2022-08-21T05:57:53;16.00;;;9.87;;
2998;SDS011;1509;51.964;7.628;2022-08-21T06:00:19;15.00;;;10.10;;
2998;SDS011;1509;51.964;7.628;2022-08-21T06:02:45;13.93;;;10.30;;
2998;SDS011;1509;51.964;7.628;2022-08-21T06:05:10;14.53;;;10.33;;
2998;SDS011;1509;51.964;7.628;2022-08-21T06:07:37;13.87;;;10.27;;
2998;SDS011;1509;51.964;7.628;2022-08-21T06:10:03;14.97;;;10.40;;
2998;SDS011;1509;51.964;7.628;2022-08-21T06:12:29;15.80;;;10.23;;
2998;SDS011;1509;51.964;7.628;2022-08-21T06:14:54;15.97;;;10.60;;
2998;SDS011;1509;51.964;7.628;2022-08-21T06:17:23;15.00;;;10.27;;
2998;SDS011;1509;51.964;7.628;2022-08-21T06:19:51;16.27;;;13.40;;
2998;SDS011;1509;51.964;7.628;2022-08-21T06:22:18;17.57;;;12.60;;
2998;SDS011;1509;51.964;7.628;2022-08-21T06:24:44;11.60;;;10.40;;
2998;SDS011;1509;51.964;7.628;2022-08-21T06:27:09;15.00;;;10.10;;
2998;SDS011;1509;51.964;7.628;2022-08-21T06:29:35;13.47;;;12.17;;
2998;SDS011;1509;51.964;7.628;2022-08-21T06:32:02;12.40;;;10.73;;
2998;SDS011;1509;51.964;7.628;2022-08-21T06:34:28;15.83;;;11.70;;
2998;SDS011;1509;51.964;7.628;2022-08-21T06:36:53;14.70;;;10.37;;
2998;SDS011;1509;51.964;7.628;2022-08-21T06:39:19;16.50;;;11.33;;
2998;SDS011;1509;51.964;7.628;2022-08-21T06:41:44;14.00;;;10.60;;
2998;SDS011;1509;51.964;7.628;2022-08-21T06:44:10;11.33;;;10.10;;
2998;SDS011;1509;51.964;7.628;2022-08-21T06:46:36;11.07;;;9.90;;
2998;SDS011;1509;51.964;7.628;2022-08-21T06:49:02;12.80;;;9.17;;
2998;SDS011;1509;51.964;7.628;2022-08-21T06:51:28;11.53;;;9.23;;
2998;SDS011;1509;51.964;7.628;2022-08-21T06:53:54;14.20;;;9.20;;
2998;SDS011;1509;51.964;7.628;2022-08-21T06:56:20;12.07;;;9.00;;
2998;SDS011;1509;51.964;7.628;2022-08-21T06:58:46;12.60;;;8.97;;
2998;SDS011;1509;51.964;7.628;2022-08-21T07:01:11;12.50;;;9.10;;
2998;SDS011;1509;51.964;7.628;2022-08-21T07:03:41;11.50;;;7.47;;
2998;SDS011;1509;51.964;7.628;2022-08-21T07:06:09;12.70;;;8.33;;
2998;SDS011;1509;51.964;7.628;2022-08-21T07:08:35;12.60;;;7.80;;
2998;SDS011;1509;51.964;7.628;2022-08-21T07:11:02;11.73;;;7.83;;
2998;SDS011;1509;51.964;7.628;2022-08-21T07:13:34;9.23;;;8.10;;
2998;SDS011;1509;51.964;7.628;2022-08-21T07:16:00;8.43;;;6.37;;
2998;SDS011;1509;51.964;7.628;2022-08-21T07:18:26;12.30;;;7.30;;
2998;SDS011;1509;51.964;7.628;2022-08-21T07:20:52;10.27;;;5.57;;
2998;SDS011;1509;51.964;7.628;2022-08-21T07:23:30;10.90;;;5.30;;
2998;SDS011;1509;51.964;7.628;2022-08-21T07:25:58;7.03;;;5.47;;
2998;SDS011;1509;51.964;7.628;2022-08-21T07:28:27;8.37;;;5.00;;
2998;SDS011;1509;51.964;7.628;2022-08-21T07:30:54;8.97;;;6.10;;
2998;SDS011;1509;51.964;7.628;2022-08-21T07:33:21;9.40;;;5.90;;
2998;SDS011;1509;51.964;7.628;2022-08-21T07:35:48;7.83;;;6.57;;
2998;SDS011;1509;51.964;7.628;2022-08-21T07:38:13;8.70;;;6.90;;
2998;SDS011;1509;51.964;7.628;2022-08-21T07:40:39;8.80;;;6.80;;
2998;SDS011;1509;51.964;7.628;2022-08-21T07:43:05;8.60;;;6.50;;
2998;SDS011;1509;51.964;7.628;2022-08-21T07:45:30;10.90;;;6.90;;
2998;SDS011;1509;51.964;7.628;2022-08-21T07:47:56;10.27;;;6.73;;
2998;SDS011;1509;51.964;7.628;2022-08-21T07:50:22;12.33;;;6.60;;
2998;SDS011;1509;51.964;7.628;2022-08-21T07:52:48;9.97;;;7.27;;
2998;SDS011;1509;51.964;7.628;2022-08-21T07:55:15;10.00;;;6.80;;
2998;SDS011;1509;51.964;7.628;2022-08-21T07:57:42;8.07;;;7.10;;
2998;SDS011;1509;51.964;7.628;2022-08-21T08:00:11;8.00;;;7.03;;
2998;SDS011;1509;51.964;7.628;2022-08-21T08:02:39;10.27;;;7.63;;
2998;SDS011;1509;51.964;7.628;2022-08-21T08:05:07;10.30;;;7.00;;
2998;SDS011;1509;51.964;7.628;2022-08-21T08:07:34;12.43;;;7.63;;
2998;SDS011;1509;51.964;7.628;2022-08-21T08:10:01;14.50;;;7.53;;
2998;SDS011;1509;51.964;7.628;2022-08-21T08:12:27;9.47;;;8.03;;
2998;SDS011;1509;51.964;7.628;2022-08-21T08:14:57;14.43;;;7.53;;
2998;SDS011;1509;51.964;7.628;2022-08-21T08:17:24;14.43;;;7.00;;
2998;SDS011;1509;51.964;7.628;2022-08-21T08:19:51;9.30;;;6.60;;
2998;SDS011;1509;51.964;7.628;2022-08-21T08:22:17;15.00;;;8.60;;
2998;SDS011;1509;51.964;7.628;2022-08-21T08:24:45;9.87;;;7.70;;
2998;SDS011;1509;51.964;7.628;2022-08-21T08:27:12;12.97;;;8.30;;
2998;SDS011;1509;51.964;7.628;2022-08-21T08:29:38;10.80;;;8.40;;
2998;SDS011;1509;51.964;7.628;2022-08-21T08:32:04;11.10;;;7.80;;
2998;SDS011;1509;51.964;7.628;2022-08-21T08:34:32;11.30;;;9.10;;
2998;SDS011;1509;51.964;7.628;2022-08-21T08:36:58;13.30;;;9.20;;
2998;SDS011;1509;51.964;7.628;2022-08-21T08:39:24;14.90;;;9.80;;
2998;SDS011;1509;51.964;7.628;2022-08-21T08:41:50;11.23;;;8.07;;
2998;SDS011;1509;51.964;7.628;2022-08-21T08:44:24;14.63;;;8.80;;
2998;SDS011;1509;51.964;7.628;2022-08-21T08:46:50;11.53;;;8.70;;
2998;SDS011;1509;51.964;7.628;2022-08-21T08:49:24;10.30;;;8.00;;
2998;SDS011;1509;51.964;7.628;2022-08-21T08:51:59;13.00;;;9.30;;
2998;SDS011;1509;51.964;7.628;2022-08-21T08:54:41;13.70;;;9.80;;
2998;SDS011;1509;51.964;7.628;2022-08-21T08:57:15;12.10;;;8.27;;
2998;SDS011;1509;51.964;7.628;2022-08-21T09:00:06;11.50;;;8.40;;
2998;SDS011;1509;51.964;7.628;2022-08-21T09:02:32;9.73;;;8.07;;
2998;SDS011;1509;51.964;7.628;2022-08-21T09:04:58;12.10;;;6.90;;
2998;SDS011;1509;51.964;7.628;2022-08-21T09:07:32;10.90;;;7.03;;
2998;SDS011;1509;51.964;7.628;2022-08-21T09:12:45;7.53;;;6.00;;
2998;SDS011;1509;51.964;7.628;2022-08-21T09:15:15;11.73;;;7.60;;
2998;SDS011;1509;51.964;7.628;2022-08-21T09:26:31;9.07;;;6.87;;
2998;SDS011;1509;51.964;7.628;2022-08-21T09:29:20;7.40;;;5.10;;
2998;SDS011;1509;51.964;7.628;2022-08-21T09:31:49;8.90;;;4.10;;
2998;SDS011;1509;51.964;7.628;2022-08-21T09:34:23;5.00;;;3.93;;
2998;SDS011;1509;51.964;7.628;2022-08-21T09:36:53;6.37;;;3.93;;
2998;SDS011;1509;51.964;7.628;2022-08-21T09:39:27;8.67;;;3.50;;
2998;SDS011;1509;51.964;7.628;2022-08-21T09:42:03;5.57;;;3.17;;
2998;SDS011;1509;51.964;7.628;2022-08-21T09:44:32;4.23;;;3.10;;
2998;SDS011;1509;51.964;7.628;2022-08-21T09:47:04;6.90;;;2.90;;
2998;SDS011;1509;51.964;7.628;2022-08-21T09:49:31;5.47;;;3.30;;
2998;SDS011;1509;51.964;7.628;2022-08-21T09:51:59;10.27;;;3.40;;
2998;SDS011;1509;51.964;7.628;2022-08-21T09:54:32;6.07;;;3.43;;
2998;SDS011;1509;51.964;7.628;2022-08-21T09:59:52;5.67;;;2.67;;
2998;SDS011;1509;51.964;7.628;2022-08-21T10:02:23;4.83;;;2.73;;
2998;SDS011;1509;51.964;7.628;2022-08-21T10:04:50;5.50;;;3.37;;
2998;SDS011;1509;51.964;7.628;2022-08-21T10:07:19;5.77;;;3.17;;
2998;SDS011;1509;51.964;7.628;2022-08-21T10:09:57;6.43;;;3.90;;
2998;SDS011;1509;51.964;7.628;2022-08-21T10:16:18;5.63;;;2.80;;
2998;SDS011;1509;51.964;7.628;2022-08-21T10:21:59;5.17;;;3.03;;
2998;SDS011;1509;51.964;7.628;2022-08-21T10:40:26;7.70;;;3.50;;
2998;SDS011;1509;51.964;7.628;2022-08-21T10:43:23;5.57;;;3.00;;
2998;SDS011;1509;51.964;7.628;2022-08-21T10:46:17;7.20;;;2.87;;
2998;SDS011;1509;51.964;7.628;2022-08-21T10:51:34;6.23;;;2.50;;
2998;SDS011;1509;51.964;7.628;2022-08-21T10:54:19;4.77;;;2.43;;
2998;SDS011;1509;51.964;7.628;2022-08-21T10:56:46;5.40;;;2.30;;
2998;SDS011;1509;51.964;7.628;2022-08-21T11:01:53;6.87;;;2.50;;
2998;SDS011;1509;51.964;7.628;2022-08-21T11:07:20;4.23;;;2.30;;
2998;SDS011;1509;51.964;7.628;2022-08-21T11:10:38;4.80;;;1.87;;
2998;SDS011;1509;51.964;7.628;2022-08-21T11:18:37;4.03;;;1.90;;
2998;SDS011;1509;51.964;7.628;2022-08-21T11:26:48;4.27;;;2.10;;
2998;SDS011;1509;51.964;7.628;2022-08-21T11:29:24;3.07;;;2.07;;
2998;SDS011;1509;51.964;7.628;2022-08-21T11:42:56;4.37;;;1.63;;
2998;SDS011;1509;51.964;7.628;2022-08-21T11:51:13;4.77;;;1.83;;
2998;SDS011;1509;51.964;7.628;2022-08-21T11:56:18;2.80;;;1.67;;
2998;SDS011;1509;51.964;7.628;2022-08-21T11:58:55;2.40;;;1.47;;
2998;SDS011;1509;51.964;7.628;2022-08-21T12:01:26;1.97;;;1.30;;
2998;SDS011;1509;51.964;7.628;2022-08-21T12:03:59;2.90;;;1.50;;
2998;SDS011;1509;51.964;7.628;2022-08-21T12:06:36;3.20;;;2.00;;
2998;SDS011;1509;51.964;7.628;2022-08-21T12:09:05;2.67;;;1.33;;
2998;SDS011;1509;51.964;7.628;2022-08-21T12:11:49;4.13;;;1.40;;
2998;SDS011;1509;51.964;7.628;2022-08-21T12:14:41;2.70;;;2.07;;
2998;SDS011;1509;51.964;7.628;2022-08-21T12:17:16;4.83;;;1.50;;
2998;SDS011;1509;51.964;7.628;2022-08-21T12:19:44;6.63;;;1.70;;
2998;SDS011;1509;51.964;7.628;2022-08-21T12:22:11;3.40;;;1.70;;
2998;SDS011;1509;51.964;7.628;2022-08-21T12:24:40;3.37;;;1.80;;
2998;SDS011;1509;51.964;7.628;2022-08-21T12:27:20;5.17;;;1.50;;
2998;SDS011;1509;51.964;7.628;2022-08-21T12:29:55;2.20;;;1.30;;
2998;SDS011;1509;51.964;7.628;2022-08-21T12:35:15;3.00;;;1.50;;
2998;SDS011;1509;51.964;7.628;2022-08-21T12:37:47;3.30;;;1.80;;
2998;SDS011;1509;51.964;7.628;2022-08-21T12:40:23;2.70;;;1.30;;
2998;SDS011;1509;51.964;7.628;2022-08-21T12:42:55;4.20;;;1.80;;
2998;SDS011;1509;51.964;7.628;2022-08-21T12:45:34;4.73;;;1.60;;
2998;SDS011;1509;51.964;7.628;2022-08-21T12:48:09;3.70;;;1.53;;
2998;SDS011;1509;51.964;7.628;2022-08-21T12:50:57;3.10;;;1.33;;
2998;SDS011;1509;51.964;7.628;2022-08-21T12:56:01;4.60;;;1.70;;
2998;SDS011;1509;51.964;7.628;2022-08-21T12:58:28;3.40;;;1.60;;
2998;SDS011;1509;51.964;7.628;2022-08-21T13:03:53;4.03;;;2.20;;
2998;SDS011;1509;51.964;7.628;2022-08-21T13:06:22;3.50;;;1.40;;
2998;SDS011;1509;51.964;7.628;2022-08-21T13:08:52;4.30;;;2.27;;
2998;SDS011;1509;51.964;7.628;2022-08-21T13:11:23;2.67;;;1.50;;
2998;SDS011;1509;51.964;7.628;2022-08-21T13:13:49;1.93;;;1.57;;
2998;SDS011;1509;51.964;7.628;2022-08-21T13:16:19;2.93;;;1.50;;
2998;SDS011;1509;51.964;7.628;2022-08-21T13:21:21;2.93;;;1.33;;
2998;SDS011;1509;51.964;7.628;2022-08-21T13:23:53;5.30;;;1.50;;
2998;SDS011;1509;51.964;7.628;2022-08-21T13:26:20;3.67;;;1.80;;
2998;SDS011;1509;51.964;7.628;2022-08-21T13:28:47;3.53;;;1.53;;
2998;SDS011;1509;51.964;7.628;2022-08-21T13:31:20;3.43;;;1.97;;
2998;SDS011;1509;51.964;7.628;2022-08-21T13:33:51;3.50;;;1.20;;
2998;SDS011;1509;51.964;7.628;2022-08-21T13:36:20;3.23;;;1.40;;
2998;SDS011;1509;51.964;7.628;2022-08-21T13:38:51;3.87;;;1.47;;
2998;SDS011;1509;51.964;7.628;2022-08-21T13:41:26;2.13;;;1.50;;
2998;SDS011;1509;51.964;7.628;2022-08-21T13:44:01;4.30;;;1.50;;
2998;SDS011;1509;51.964;7.628;2022-08-21T13:46:41;3.67;;;1.57;;
2998;SDS011;1509;51.964;7.628;2022-08-21T13:49:07;3.30;;;1.53;;
2998;SDS011;1509;51.964;7.628;2022-08-21T13:51:35;2.40;;;1.40;;
2998;SDS011;1509;51.964;7.628;2022-08-21T13:54:01;2.03;;;1.30;;
2998;SDS011;1509;51.964;7.628;2022-08-21T13:56:41;5.07;;;2.20;;
2998;SDS011;1509;51.964;7.628;2022-08-21T13:59:09;3.20;;;1.60;;
2998;SDS011;1509;51.964;7.628;2022-08-21T14:04:32;2.00;;;1.30;;
2998;SDS011;1509;51.964;7.628;2022-08-21T14:07:00;1.80;;;1.27;;
2998;SDS011;1509;51.964;7.628;2022-08-21T14:09:33;4.17;;;2.17;;
2998;SDS011;1509;51.964;7.628;2022-08-21T14:12:01;3.20;;;1.77;;
2998;SDS011;1509;51.964;7.628;2022-08-21T14:14:37;3.43;;;1.90;;
2998;SDS011;1509;51.964;7.628;2022-08-21T14:17:06;3.87;;;1.60;;
2998;SDS011;1509;51.964;7.628;2022-08-21T14:19:38;2.97;;;1.50;;
2998;SDS011;1509;51.964;7.628;2022-08-21T14:27:58;4.90;;;1.87;;
2998;SDS011;1509;51.964;7.628;2022-08-21T14:30:46;2.50;;;1.50;;
2998;SDS011;1509;51.964;7.628;2022-08-21T14:33:13;2.77;;;1.50;;
2998;SDS011;1509;51.964;7.628;2022-08-21T14:35:47;2.83;;;1.57;;
2998;SDS011;1509;51.964;7.628;2022-08-21T14:38:14;4.83;;;1.77;;
2998;SDS011;1509;51.964;7.628;2022-08-21T14:40:44;3.63;;;1.50;;
2998;SDS011;1509;51.964;7.628;2022-08-21T14:43:14;3.90;;;2.00;;
2998;SDS011;1509;51.964;7.628;2022-08-21T14:45:39;3.67;;;1.80;;
2998;SDS011;1509;51.964;7.628;2022-08-21T14:48:06;2.40;;;1.63;;
2998;SDS011;1509;51.964;7.628;2022-08-21T14:50:32;3.80;;;1.90;;
2998;SDS011;1509;51.964;7.628;2022-08-21T14:52:58;3.93;;;1.97;;
2998;SDS011;1509;51.964;7.628;2022-08-21T14:55:24;5.90;;;2.07;;
2998;SDS011;1509;51.964;7.628;2022-08-21T14:57:51;3.77;;;1.87;;
2998;SDS011;1509;51.964;7.628;2022-08-21T15:00:19;6.40;;;1.80;;
2998;SDS011;1509;51.964;7.628;2022-08-21T15:02:50;2.60;;;1.77;;
2998;SDS011;1509;51.964;7.628;2022-08-21T15:05:16;4.47;;;3.40;;
2998;SDS011;1509;51.964;7.628;2022-08-21T15:07:42;5.13;;;1.90;;
2998;SDS011;1509;51.964;7.628;2022-08-21T15:10:09;3.60;;;1.70;;
2998;SDS011;1509;51.964;7.628;2022-08-21T15:12:36;5.13;;;2.00;;
2998;SDS011;1509;51.964;7.628;2022-08-21T15:15:04;3.03;;;1.80;;
2998;SDS011;1509;51.964;7.628;2022-08-21T15:17:30;3.43;;;1.90;;
2998;SDS011;1509;51.964;7.628;2022-08-21T15:19:56;2.40;;;1.90;;
2998;SDS011;1509;51.964;7.628;2022-08-21T15:22:21;2.50;;;1.77;;
2998;SDS011;1509;51.964;7.628;2022-08-21T15:24:47;3.13;;;1.67;;
2998;SDS011;1509;51.964;7.628;2022-08-21T15:27:15;3.13;;;2.00;;
2998;SDS011;1509;51.964;7.628;2022-08-21T15:29:43;2.70;;;1.43;;
2998;SDS011;1509;51.964;7.628;2022-08-21T15:32:20;3.37;;;2.23;;
2998;SDS011;1509;51.964;7.628;2022-08-21T15:34:52;3.50;;;1.53;;
2998;SDS011;1509;51.964;7.628;2022-08-21T15:37:18;5.80;;;2.23;;
2998;SDS011;1509;51.964;7.628;2022-08-21T15:39:45;4.33;;;1.83;;
2998;SDS011;1509;51.964;7.628;2022-08-21T15:42:11;4.50;;;2.00;;
2998;SDS011;1509;51.964;7.628;2022-08-21T15:44:41;4.53;;;1.87;;
2998;SDS011;1509;51.964;7.628;2022-08-21T15:47:18;4.20;;;2.23;;
2998;SDS011;1509;51.964;7.628;2022-08-21T15:49:46;3.20;;;2.07;;
2998;SDS011;1509;51.964;7.628;2022-08-21T15:52:15;3.53;;;2.07;;
2998;SDS011;1509;51.964;7.628;2022-08-21T15:54:42;5.00;;;2.67;;
2998;SDS011;1509;51.964;7.628;2022-08-21T15:57:12;3.67;;;2.63;;
2998;SDS011;1509;51.964;7.628;2022-08-21T15:59:42;3.10;;;1.67;;
2998;SDS011;1509;51.964;7.628;2022-08-21T16:02:25;3.50;;;2.30;;
2998;SDS011;1509;51.964;7.628;2022-08-21T16:04:53;4.13;;;1.90;;
2998;SDS011;1509;51.964;7.628;2022-08-21T16:07:20;2.70;;;1.40;;
2998;SDS011;1509;51.964;7.628;2022-08-21T16:09:46;3.23;;;1.80;;
2998;SDS011;1509;51.964;7.628;2022-08-21T16:12:13;3.03;;;2.17;;
2998;SDS011;1509;51.964;7.628;2022-08-21T16:14:56;3.30;;;2.20;;
2998;SDS011;1509;51.964;7.628;2022-08-21T16:17:24;3.07;;;1.87;;
2998;SDS011;1509;51.964;7.628;2022-08-21T16:19:57;4.77;;;1.63;;
2998;SDS011;1509;51.964;7.628;2022-08-21T16:22:24;2.30;;;1.90;;
2998;SDS011;1509;51.964;7.628;2022-08-21T16:24:50;2.90;;;1.60;;
2998;SDS011;1509;51.964;7.628;2022-08-21T16:27:16;3.37;;;1.50;;
2998;SDS011;1509;51.964;7.628;2022-08-21T16:29:42;4.77;;;1.60;;
2998;SDS011;1509;51.964;7.628;2022-08-21T16:32:08;3.70;;;1.70;;
2998;SDS011;1509;51.964;7.628;2022-08-21T16:34:34;2.40;;;1.30;;
2998;SDS011;1509;51.964;7.628;2022-08-21T16:37:00;3.90;;;1.77;;
2998;SDS011;1509;51.964;7.628;2022-08-21T16:39:26;3.53;;;1.67;;
2998;SDS011;1509;51.964;7.628;2022-08-21T16:41:51;3.30;;;1.90;;
2998;SDS011;1509;51.964;7.628;2022-08-21T16:44:18;3.63;;;1.50;;
2998;SDS011;1509;51.964;7.628;2022-08-21T16:46:46;5.73;;;1.47;;
2998;SDS011;1509;51.964;7.628;2022-08-21T16:49:12;3.57;;;1.40;;
2998;SDS011;1509;51.964;7.628;2022-08-21T16:51:38;2.73;;;1.57;;
2998;SDS011;1509;51.964;7.628;2022-08-21T16:54:04;4.50;;;2.80;;
2998;SDS011;1509;51.964;7.628;2022-08-21T16:56:30;2.43;;;1.60;;